Main page
METAR-TAF:

METAR-TAF

Airports :

Montes Claros Airport

Montes Claros, Minas Gerais, Brazil

latitude: 16-43S, longitude: 043-52W, elevation: 646 m

Current weather observation

The report was made 1 hour and 12 minutes ago, at 10:00 UTC
Calm wind
Temperature 22°C
Humidity 73%
Pressure 1022 hPa
Visibility 10 km or more
Few clouds at a height of 2500 ft

METAR: SBMK 121000Z 00000KT 9999 FEW025 22/17 Q1022

Time: 09:12 (11:12 UTC)


TAF: missing

Weather observations and forecasts of more than 4000 airports (METAR and TAF reports).

The available stations are represented by yellow and red dots on the map.

Hover mouse over dot to see the name of the station.

Then click to see weather observations and forecasts.

To change the map : click on the green buttons with a black cross to zoom in, on the green button with a dash to zoom out, or on the green arrows for adjacent maps.


METAR-TAF: